createdAt,value
2023-05-08T00:02:43.826Z,81.37
2023-05-08T00:05:46.817Z,81.99
2023-05-08T00:08:49.686Z,82.62
2023-05-08T00:11:52.521Z,83.48
2023-05-08T00:14:55.616Z,83.92
2023-05-08T00:17:58.815Z,85.05
2023-05-08T00:21:02.093Z,85.71
2023-05-08T00:24:05.008Z,86.65
2023-05-08T00:27:08.474Z,88.83
2023-05-08T00:30:11.983Z,89.61
2023-05-08T00:33:15.002Z,91.07
2023-05-08T00:36:18.297Z,92.41
2023-05-08T00:39:22.084Z,93.17
2023-05-08T00:42:24.990Z,93.60
2023-05-08T00:45:33.232Z,88.37
2023-05-08T00:48:36.577Z,84.28
2023-05-08T00:51:40.925Z,78.51
2023-05-08T00:54:44.526Z,77.59
2023-05-08T00:57:48.282Z,76.77
2023-05-08T01:00:54.424Z,76.29
2023-05-08T01:03:57.439Z,77.68
2023-05-08T01:07:01.710Z,77.34
2023-05-08T01:10:05.147Z,77.55
2023-05-08T01:13:37.081Z,78.18
2023-05-08T01:16:42.713Z,78.35
2023-05-08T01:20:30.518Z,78.85
2023-05-08T01:23:43.022Z,80.14
2023-05-08T01:27:04.380Z,80.37
2023-05-08T01:30:29.730Z,81.18
2023-05-08T01:33:44.309Z,81.78
2023-05-08T01:36:56.184Z,83.00
2023-05-08T01:40:21.301Z,83.49
2023-05-08T01:43:44.992Z,82.76
2023-05-08T01:46:51.583Z,83.84
2023-05-08T01:50:18.578Z,84.22
2023-05-08T01:53:43.886Z,85.31
2023-05-08T01:56:48.194Z,85.79
2023-05-08T01:59:52.837Z,86.23
2023-05-08T02:02:57.193Z,86.83
2023-05-08T02:06:00.958Z,87.32
2023-05-08T02:09:04.240Z,89.18
2023-05-08T02:12:08.433Z,89.18
2023-05-08T02:15:13.505Z,89.35
2023-05-08T02:18:18.938Z,90.11
2023-05-08T02:21:23.122Z,89.95
2023-05-08T02:24:26.577Z,90.34
2023-05-08T02:27:30.608Z,90.63
2023-05-08T02:30:34.010Z,91.82
2023-05-08T02:33:40.290Z,92.68
2023-05-08T02:36:43.475Z,93.28
2023-05-08T02:39:48.526Z,93.98
2023-05-08T02:42:51.723Z,95.54
2023-05-08T02:46:16.435Z,96.49
2023-05-08T02:49:23.602Z,97.50
2023-05-08T02:52:31.087Z,98.51
2023-05-08T02:55:49.773Z,99.78
2023-05-08T02:59:02.591Z,100.00
2023-05-08T03:02:17.293Z,100.00
2023-05-08T03:05:26.265Z,100.00
2023-05-08T03:08:35.566Z,100.00
2023-05-08T03:11:41.414Z,100.00
2023-05-08T03:15:12.552Z,100.00
2023-05-08T03:18:20.525Z,100.00
2023-05-08T03:21:24.552Z,100.00
2023-05-08T03:24:28.625Z,100.00
2023-05-08T03:27:32.423Z,100.00
2023-05-08T03:30:40.783Z,100.00
2023-05-08T03:33:48.256Z,100.00
2023-05-08T03:36:51.206Z,100.00
2023-05-08T03:39:55.970Z,100.00
2023-05-08T03:43:00.908Z,100.00
2023-05-08T03:46:07.239Z,100.00
2023-05-08T03:49:11.340Z,100.00
2023-05-08T03:52:15.124Z,100.00
2023-05-08T03:55:18.347Z,100.00
2023-05-08T03:58:37.461Z,100.00
2023-05-08T04:01:46.778Z,100.00
2023-05-08T04:04:55.708Z,100.00
2023-05-08T04:08:10.062Z,100.00
2023-05-08T04:11:22.661Z,100.00
2023-05-08T04:14:30.851Z,100.00
2023-05-08T04:17:48.418Z,100.00
2023-05-08T04:20:54.901Z,100.00
2023-05-08T04:23:58.785Z,100.00
2023-05-08T04:27:03.486Z,99.89
2023-05-08T04:30:08.372Z,98.88
2023-05-08T04:33:11.974Z,99.23
2023-05-08T04:36:14.881Z,98.65
2023-05-08T04:39:20.200Z,97.84
2023-05-08T04:42:24.546Z,97.47
2023-05-08T04:45:28.245Z,96.19
2023-05-08T04:48:33.500Z,95.39
2023-05-08T04:51:36.777Z,95.20
2023-05-08T04:54:42.156Z,94.63
2023-05-08T04:57:45.670Z,94.09
2023-05-08T05:00:48.801Z,93.71
2023-05-08T05:03:51.669Z,94.02
2023-05-08T05:06:55.054Z,94.09
2023-05-08T05:09:58.222Z,92.62
2023-05-08T05:13:01.317Z,91.73
2023-05-08T05:16:04.708Z,90.76
2023-05-08T05:19:07.820Z,89.04
2023-05-08T05:22:10.868Z,89.91
2023-05-08T05:25:13.762Z,88.86
2023-05-08T05:28:16.952Z,89.79
2023-05-08T05:31:19.965Z,88.93
2023-05-08T05:34:23.208Z,88.89
2023-05-08T05:37:25.951Z,89.27
2023-05-08T05:40:29.532Z,86.38
2023-05-08T05:43:33.178Z,86.62
2023-05-08T05:46:36.518Z,86.34
2023-05-08T05:49:43.264Z,85.01
2023-05-08T05:52:47.061Z,85.55
2023-05-08T05:55:50.325Z,85.08
2023-05-08T05:58:54.070Z,85.92
2023-05-08T06:02:23.289Z,86.25
2023-05-08T06:05:26.679Z,87.77
2023-05-08T06:08:34.826Z,87.70
2023-05-08T06:11:37.609Z,88.20
2023-05-08T06:14:40.233Z,89.26
2023-05-08T06:17:43.108Z,88.78
2023-05-08T06:20:45.736Z,87.94
2023-05-08T06:23:48.433Z,88.20
2023-05-08T06:26:51.123Z,87.36
2023-05-08T06:29:54.104Z,86.05
2023-05-08T06:32:56.952Z,85.52
2023-05-08T06:36:00.548Z,85.01
2023-05-08T06:39:06.474Z,85.01
2023-05-08T06:42:09.146Z,84.35
2023-05-08T06:45:15.180Z,84.32
2023-05-08T06:48:18.175Z,83.67
2023-05-08T06:51:23.316Z,83.17
2023-05-08T06:54:26.229Z,81.92
2023-05-08T06:57:30.554Z,82.62
2023-05-08T07:00:33.788Z,80.86
2023-05-08T07:03:37.169Z,81.09
2023-05-08T07:06:40.118Z,80.14
2023-05-08T07:10:01.155Z,79.71
2023-05-08T07:13:33.678Z,80.47
2023-05-08T07:16:40.753Z,77.19
2023-05-08T07:19:50.885Z,77.07
2023-05-08T07:22:56.627Z,77.45
2023-05-08T07:25:59.788Z,77.08
2023-05-08T07:29:16.116Z,76.36
2023-05-08T07:32:20.008Z,75.29
2023-05-08T07:35:23.494Z,74.23
2023-05-08T07:38:26.881Z,73.76
2023-05-08T07:41:30.031Z,73.47
2023-05-08T07:44:47.010Z,72.00
2023-05-08T07:47:58.087Z,71.21
2023-05-08T07:51:04.879Z,70.93
2023-05-08T07:54:07.727Z,69.34
2023-05-08T07:57:10.556Z,70.13
2023-05-08T08:00:15.174Z,69.80
2023-05-08T08:03:19.450Z,71.46
2023-05-08T08:06:22.769Z,71.18
2023-05-08T08:09:25.899Z,71.85
2023-05-08T08:12:29.453Z,72.08
2023-05-08T08:15:32.874Z,71.55
2023-05-08T08:18:37.772Z,68.87
2023-05-08T08:21:52.768Z,67.57
2023-05-08T08:24:56.649Z,67.26
2023-05-08T08:27:59.440Z,65.83
2023-05-08T08:31:02.534Z,65.78
2023-05-08T08:34:05.418Z,66.79
2023-05-08T08:37:08.728Z,66.24
2023-05-08T08:40:11.837Z,65.62
2023-05-08T08:43:14.875Z,66.73
2023-05-08T08:46:20.440Z,66.52
2023-05-08T08:49:37.401Z,65.41
2023-05-08T08:53:05.319Z,65.39
2023-05-08T08:56:09.259Z,65.31
2023-05-08T08:59:13.433Z,64.72
2023-05-08T09:02:18.192Z,67.52
2023-05-08T09:05:23.792Z,65.07
2023-05-08T09:08:26.944Z,65.58
2023-05-08T09:11:30.093Z,64.20
2023-05-08T09:14:33.137Z,65.64
2023-05-08T09:17:36.138Z,63.65
2023-05-08T09:20:41.918Z,64.79
2023-05-08T09:24:05.085Z,64.19
2023-05-08T09:27:21.562Z,64.76
2023-05-08T09:30:24.437Z,62.37
2023-05-08T09:33:29.166Z,61.43
2023-05-08T09:36:32.365Z,61.19
2023-05-08T09:39:35.207Z,61.05
2023-05-08T09:42:39.029Z,60.36
2023-05-08T09:45:42.873Z,59.57
2023-05-08T09:48:46.133Z,59.69
2023-05-08T09:55:22.189Z,59.74
2023-05-08T09:58:41.165Z,58.54
2023-05-08T10:01:44.693Z,59.00
2023-05-08T10:04:47.960Z,57.50
2023-05-08T10:07:51.012Z,57.65
2023-05-08T10:10:53.821Z,58.44
2023-05-08T10:13:56.593Z,58.78
2023-05-08T10:17:03.957Z,59.26
2023-05-08T10:20:08.089Z,59.49
2023-05-08T10:23:15.166Z,59.02
2023-05-08T10:26:32.704Z,61.33
2023-05-08T10:29:52.822Z,60.48
2023-05-08T10:32:56.679Z,58.17
2023-05-08T10:36:00.358Z,59.00
2023-05-08T10:39:03.358Z,59.31
2023-05-08T10:42:07.049Z,59.39
2023-05-08T10:45:10.817Z,59.84
2023-05-08T10:48:35.275Z,58.48
2023-05-08T10:51:47.717Z,56.65
2023-05-08T10:55:04.561Z,56.49
2023-05-08T10:58:17.507Z,55.33
2023-05-08T11:01:20.265Z,57.25
2023-05-08T11:04:23.894Z,56.93
2023-05-08T11:08:02.231Z,55.43
2023-05-08T11:11:11.128Z,54.93
2023-05-08T11:14:15.619Z,53.28
2023-05-08T11:17:23.929Z,54.88
2023-05-08T11:20:56.634Z,53.41
2023-05-08T11:23:59.376Z,52.20
2023-05-08T11:27:02.161Z,53.05
2023-05-08T11:30:27.005Z,55.26
2023-05-08T11:33:31.293Z,54.73
2023-05-08T11:36:36.979Z,55.07
2023-05-08T11:39:39.968Z,53.81
2023-05-08T11:42:42.964Z,52.70
2023-05-08T11:45:46.968Z,53.44
2023-05-08T11:48:58.503Z,51.53
2023-05-08T11:52:01.505Z,49.81
2023-05-08T11:55:13.091Z,51.23
2023-05-08T11:58:16.703Z,50.94
2023-05-08T12:01:22.543Z,52.56
2023-05-08T12:04:25.429Z,48.56
2023-05-08T12:07:28.414Z,46.97
2023-05-08T12:10:31.670Z,45.48
2023-05-08T12:13:35.036Z,48.75
2023-05-08T12:16:39.060Z,48.94
2023-05-08T12:19:41.872Z,49.73
2023-05-08T12:22:52.892Z,47.62
2023-05-08T12:25:55.831Z,47.43
2023-05-08T12:28:58.914Z,48.03
2023-05-08T12:32:02.051Z,48.82
2023-05-08T12:35:06.991Z,49.89
2023-05-08T12:38:11.010Z,49.09
2023-05-08T12:41:14.055Z,47.29
2023-05-08T12:44:23.679Z,49.53
2023-05-08T12:47:26.944Z,45.69
2023-05-08T12:50:33.695Z,47.57
2023-05-08T12:53:38.128Z,47.57
2023-05-08T12:56:46.664Z,46.89
2023-05-08T12:59:49.417Z,44.31
2023-05-08T13:02:55.861Z,42.37
2023-05-08T13:05:59.025Z,41.91
2023-05-08T13:09:01.876Z,44.16
2023-05-08T13:12:05.958Z,44.41
2023-05-08T13:15:09.755Z,45.80
2023-05-08T13:18:12.698Z,46.51
2023-05-08T13:21:15.914Z,44.06
2023-05-08T13:24:18.522Z,41.05
2023-05-08T13:27:21.255Z,37.78
2023-05-08T13:30:23.970Z,35.37
2023-05-08T13:33:26.885Z,37.92
2023-05-08T13:36:29.687Z,36.84
2023-05-08T13:39:37.347Z,33.22
2023-05-08T13:42:40.094Z,35.62
2023-05-08T13:45:42.874Z,35.08
2023-05-08T13:48:45.823Z,33.61
2023-05-08T13:51:51.990Z,32.65
2023-05-08T13:54:59.405Z,32.48
2023-05-08T13:58:02.342Z,30.76
2023-05-08T14:01:17.656Z,31.49
2023-05-08T14:04:25.536Z,34.66
2023-05-08T14:07:28.399Z,33.64
2023-05-08T14:10:31.158Z,31.57
2023-05-08T14:13:33.864Z,31.66
2023-05-08T14:16:36.609Z,31.55
2023-05-08T14:19:39.510Z,32.73
2023-05-08T14:22:42.229Z,31.08
2023-05-08T14:25:44.941Z,33.27
2023-05-08T14:28:47.739Z,31.06
2023-05-08T14:31:50.724Z,33.18
2023-05-08T14:34:53.379Z,29.74
2023-05-08T14:37:56.059Z,34.98
2023-05-08T14:40:58.838Z,33.91
2023-05-08T14:44:01.985Z,32.69
2023-05-08T14:47:04.797Z,32.00
2023-05-08T14:50:07.986Z,31.46
2023-05-08T14:53:10.773Z,30.19
2023-05-08T14:56:14.237Z,31.69
2023-05-08T14:59:17.338Z,32.24
2023-05-08T15:02:20.761Z,31.93
2023-05-08T15:05:23.649Z,26.05
2023-05-08T15:08:26.607Z,25.38
2023-05-08T15:11:29.258Z,27.27
2023-05-08T15:14:31.890Z,29.26
2023-05-08T15:17:36.635Z,27.82
2023-05-08T15:20:39.397Z,27.91
2023-05-08T15:23:42.012Z,28.94
2023-05-08T15:26:44.631Z,29.90
2023-05-08T15:29:48.617Z,33.93
2023-05-08T15:32:51.580Z,32.88
2023-05-08T15:35:54.231Z,37.29
2023-05-08T15:38:56.956Z,28.81
2023-05-08T15:41:59.630Z,26.55
2023-05-08T15:45:02.409Z,24.06
2023-05-08T15:48:05.163Z,25.21
2023-05-08T15:51:07.977Z,29.13
2023-05-08T15:54:10.844Z,28.37
2023-05-08T15:57:14.015Z,31.66
2023-05-08T16:00:17.034Z,30.29
2023-05-08T16:03:19.803Z,29.13
2023-05-08T16:06:22.598Z,30.71
2023-05-08T16:09:25.485Z,32.74
2023-05-08T16:12:28.188Z,31.20
2023-05-08T16:15:30.833Z,30.25
2023-05-08T16:18:33.688Z,32.09
2023-05-08T16:21:36.263Z,35.90
2023-05-08T16:24:38.893Z,35.77
2023-05-08T16:27:41.615Z,37.06
2023-05-08T16:30:44.301Z,38.59
2023-05-08T16:33:46.956Z,39.19
2023-05-08T16:36:49.755Z,38.81
2023-05-08T16:39:52.354Z,38.25
2023-05-08T16:42:55.023Z,39.60
2023-05-08T16:45:59.356Z,41.67
2023-05-08T16:49:02.174Z,42.83
2023-05-08T16:52:04.836Z,43.63
2023-05-08T16:55:08.252Z,43.34
2023-05-08T16:58:11.311Z,44.51
2023-05-08T17:01:14.337Z,44.70
2023-05-08T17:04:17.042Z,46.57
2023-05-08T17:07:19.853Z,46.68
2023-05-08T17:10:22.598Z,47.16
2023-05-08T17:13:25.471Z,46.81
2023-05-08T17:16:28.278Z,47.84
2023-05-08T17:19:30.976Z,48.02
2023-05-08T17:22:33.525Z,48.31
2023-05-08T17:25:36.356Z,48.82
2023-05-08T17:28:39.052Z,48.34
2023-05-08T17:31:41.735Z,50.08
2023-05-08T17:34:44.457Z,51.74
2023-05-08T17:37:47.277Z,52.37
2023-05-08T17:40:50.446Z,53.84
2023-05-08T17:43:53.864Z,54.77
2023-05-08T17:46:56.673Z,56.77
2023-05-08T17:49:59.429Z,58.00
2023-05-08T17:53:02.142Z,59.55
2023-05-08T17:56:04.947Z,61.29
2023-05-08T17:59:07.666Z,61.39
2023-05-08T18:02:10.404Z,62.38
2023-05-08T18:05:13.086Z,64.07
2023-05-08T18:08:15.770Z,64.35
2023-05-08T18:11:23.410Z,64.85
2023-05-08T18:14:29.147Z,62.84
2023-05-08T18:17:31.934Z,64.05
2023-05-08T18:20:35.012Z,64.02
2023-05-08T18:23:37.731Z,64.24
2023-05-08T18:26:40.397Z,64.21
2023-05-08T18:29:43.050Z,63.93
2023-05-08T18:32:45.889Z,64.61
2023-05-08T18:35:48.801Z,64.33
2023-05-08T18:38:51.627Z,65.00
2023-05-08T18:41:54.363Z,64.64
2023-05-08T18:44:57.047Z,65.81
2023-05-08T18:47:59.835Z,66.37
2023-05-08T18:51:02.525Z,67.40
2023-05-08T18:54:05.691Z,68.44
2023-05-08T18:57:08.307Z,68.26
2023-05-08T19:00:11.543Z,68.09
2023-05-08T19:03:14.743Z,68.03
2023-05-08T19:06:17.789Z,67.33
2023-05-08T19:09:20.577Z,67.12
2023-05-08T19:12:23.322Z,68.07
2023-05-08T19:15:26.021Z,68.96
2023-05-08T19:18:30.141Z,69.38
2023-05-08T19:21:32.975Z,66.93
2023-05-08T19:24:36.733Z,67.18
2023-05-08T19:27:39.693Z,67.61
2023-05-08T19:30:42.470Z,67.63
2023-05-08T19:33:45.713Z,67.51
2023-05-08T19:36:48.235Z,68.36
2023-05-08T19:39:50.838Z,68.50
2023-05-08T19:42:54.091Z,68.57
2023-05-08T19:45:57.039Z,68.02
2023-05-08T19:48:59.710Z,68.35
2023-05-08T19:52:02.433Z,68.85
2023-05-08T19:55:05.668Z,69.26
2023-05-08T19:58:08.339Z,69.55
2023-05-08T20:01:10.908Z,69.72
2023-05-08T20:04:13.698Z,69.74
2023-05-08T20:07:16.528Z,69.35
2023-05-08T20:10:19.296Z,69.48
2023-05-08T20:13:22.054Z,69.26
2023-05-08T20:16:24.797Z,69.40
2023-05-08T20:19:27.640Z,69.74
2023-05-08T20:22:30.344Z,70.46
2023-05-08T20:25:32.992Z,70.80
2023-05-08T20:28:35.792Z,71.68
2023-05-08T20:31:38.530Z,71.37
2023-05-08T20:34:41.553Z,71.37
2023-05-08T20:37:45.681Z,70.57
2023-05-08T20:40:48.385Z,71.40
2023-05-08T20:43:50.967Z,71.34
2023-05-08T20:46:53.863Z,72.90
2023-05-08T20:49:56.768Z,72.66
2023-05-08T20:52:59.420Z,73.39
2023-05-08T20:56:03.331Z,73.52
2023-05-08T20:59:06.058Z,73.34
2023-05-08T21:02:08.660Z,74.19
2023-05-08T21:05:11.546Z,74.38
2023-05-08T21:08:14.512Z,75.07
2023-05-08T21:11:17.227Z,76.21
2023-05-08T21:14:20.027Z,77.33
2023-05-08T21:17:22.724Z,76.86
2023-05-08T21:20:25.411Z,77.82
2023-05-08T21:23:30.293Z,78.44
2023-05-08T21:26:32.964Z,80.14
2023-05-08T21:29:35.697Z,79.52
2023-05-08T21:32:38.428Z,79.17
2023-05-08T21:35:41.791Z,79.16
2023-05-08T21:38:44.413Z,80.05
2023-05-08T21:41:47.211Z,80.54
2023-05-08T21:44:49.875Z,82.49
2023-05-08T21:47:52.597Z,83.66
2023-05-08T21:50:55.348Z,84.16
2023-05-08T21:53:58.338Z,85.28
2023-05-08T21:57:00.928Z,84.62
2023-05-08T22:00:05.583Z,84.54
2023-05-08T22:03:08.377Z,85.07
2023-05-08T22:48:33.958Z,83.91
2023-05-08T22:51:36.849Z,83.64
2023-05-08T22:54:39.574Z,83.59
2023-05-08T22:57:42.260Z,84.05
2023-05-08T23:00:44.880Z,83.39
2023-05-08T23:03:51.339Z,83.91
2023-05-08T23:06:53.862Z,84.25
2023-05-08T23:09:59.107Z,84.67
2023-05-08T23:13:01.783Z,85.00
2023-05-08T23:16:04.810Z,85.47
2023-05-08T23:19:10.216Z,84.94
2023-05-08T23:22:12.806Z,84.97
2023-05-08T23:25:15.707Z,84.89
2023-05-08T23:28:20.983Z,86.73
2023-05-08T23:31:23.943Z,88.63
2023-05-08T23:34:26.631Z,90.30
2023-05-08T23:37:36.563Z,90.73
2023-05-08T23:40:39.291Z,91.97
2023-05-08T23:43:42.267Z,92.20
2023-05-08T23:46:45.364Z,92.83
2023-05-08T23:49:48.198Z,93.44
2023-05-08T23:52:50.848Z,94.33
2023-05-08T23:55:53.651Z,95.55
2023-05-08T23:58:56.513Z,95.95
